sensor_id;sensor_type;location;lat;lon;timestamp;temperature;humidity
7564;DHT22;3823;53.586;10.040;2022-07-06T00:01:19;17.30;23.20
7564;DHT22;3823;53.586;10.040;2022-07-06T00:03:45;17.20;23.50
7564;DHT22;3823;53.586;10.040;2022-07-06T00:06:11;17.20;23.30
7564;DHT22;3823;53.586;10.040;2022-07-06T00:08:38;17.30;23.60
7564;DHT22;3823;53.586;10.040;2022-07-06T00:11:04;17.30;23.40
7564;DHT22;3823;53.586;10.040;2022-07-06T00:13:30;17.20;23.50
7564;DHT22;3823;53.586;10.040;2022-07-06T00:15:55;17.30;23.60
7564;DHT22;3823;53.586;10.040;2022-07-06T00:18:21;17.30;23.20
7564;DHT22;3823;53.586;10.040;2022-07-06T00:20:46;17.30;23.10
7564;DHT22;3823;53.586;10.040;2022-07-06T00:23:12;17.30;23.30
7564;DHT22;3823;53.586;10.040;2022-07-06T00:25:38;17.30;23.80
7564;DHT22;3823;53.586;10.040;2022-07-06T00:28:03;17.30;23.50
7564;DHT22;3823;53.586;10.040;2022-07-06T00:30:29;17.30;23.30
7564;DHT22;3823;53.586;10.040;2022-07-06T00:32:55;17.20;23.20
7564;DHT22;3823;53.586;10.040;2022-07-06T00:35:21;17.20;23.20
7564;DHT22;3823;53.586;10.040;2022-07-06T00:37:46;17.20;23.10
7564;DHT22;3823;53.586;10.040;2022-07-06T00:40:12;17.20;23.20
7564;DHT22;3823;53.586;10.040;2022-07-06T00:42:42;17.30;23.20
7564;DHT22;3823;53.586;10.040;2022-07-06T00:45:08;17.20;23.50
7564;DHT22;3823;53.586;10.040;2022-07-06T00:47:34;17.20;23.80
7564;DHT22;3823;53.586;10.040;2022-07-06T00:50:00;17.20;23.40
7564;DHT22;3823;53.586;10.040;2022-07-06T00:52:49;17.30;23.30
7564;DHT22;3823;53.586;10.040;2022-07-06T00:55:17;17.20;23.20
7564;DHT22;3823;53.586;10.040;2022-07-06T00:57:42;17.20;23.20
7564;DHT22;3823;53.586;10.040;2022-07-06T01:00:13;17.10;23.50
7564;DHT22;3823;53.586;10.040;2022-07-06T01:02:40;17.00;23.40
7564;DHT22;3823;53.586;10.040;2022-07-06T01:07:36;16.90;24.20
7564;DHT22;3823;53.586;10.040;2022-07-06T01:10:03;16.90;23.90
7564;DHT22;3823;53.586;10.040;2022-07-06T01:12:29;16.90;23.90
7564;DHT22;3823;53.586;10.040;2022-07-06T01:14:55;17.00;24.20
7564;DHT22;3823;53.586;10.040;2022-07-06T01:17:21;17.00;23.60
7564;DHT22;3823;53.586;10.040;2022-07-06T01:19:47;17.00;23.60
7564;DHT22;3823;53.586;10.040;2022-07-06T01:22:13;17.00;23.80
7564;DHT22;3823;53.586;10.040;2022-07-06T01:24:38;17.00;24.10
7564;DHT22;3823;53.586;10.040;2022-07-06T01:27:05;17.00;24.10
7564;DHT22;3823;53.586;10.040;2022-07-06T01:29:32;17.00;24.10
7564;DHT22;3823;53.586;10.040;2022-07-06T01:31:58;17.00;24.10
7564;DHT22;3823;53.586;10.040;2022-07-06T01:34:24;17.00;24.20
7564;DHT22;3823;53.586;10.040;2022-07-06T01:36:49;17.00;24.30
7564;DHT22;3823;53.586;10.040;2022-07-06T01:39:15;17.00;24.10
7564;DHT22;3823;53.586;10.040;2022-07-06T01:41:40;17.00;24.50
7564;DHT22;3823;53.586;10.040;2022-07-06T01:44:07;16.90;24.50
7564;DHT22;3823;53.586;10.040;2022-07-06T01:46:32;17.00;24.90
7564;DHT22;3823;53.586;10.040;2022-07-06T01:48:58;16.90;25.30
7564;DHT22;3823;53.586;10.040;2022-07-06T01:51:24;16.80;25.10
7564;DHT22;3823;53.586;10.040;2022-07-06T01:53:51;16.80;24.60
7564;DHT22;3823;53.586;10.040;2022-07-06T01:56:17;16.80;25.10
7564;DHT22;3823;53.586;10.040;2022-07-06T01:58:45;16.90;24.70
7564;DHT22;3823;53.586;10.040;2022-07-06T02:01:15;16.80;24.70
7564;DHT22;3823;53.586;10.040;2022-07-06T02:03:42;16.80;24.80
7564;DHT22;3823;53.586;10.040;2022-07-06T02:06:08;16.80;25.00
7564;DHT22;3823;53.586;10.040;2022-07-06T02:08:35;16.80;25.40
7564;DHT22;3823;53.586;10.040;2022-07-06T02:11:03;16.80;25.30
7564;DHT22;3823;53.586;10.040;2022-07-06T02:13:28;16.90;25.00
7564;DHT22;3823;53.586;10.040;2022-07-06T02:15:54;16.90;25.00
7564;DHT22;3823;53.586;10.040;2022-07-06T02:18:19;16.80;25.40
7564;DHT22;3823;53.586;10.040;2022-07-06T02:20:45;16.80;25.20
7564;DHT22;3823;53.586;10.040;2022-07-06T02:23:11;16.80;25.50
7564;DHT22;3823;53.586;10.040;2022-07-06T02:25:37;16.80;25.20
7564;DHT22;3823;53.586;10.040;2022-07-06T02:28:02;16.80;26.00
7564;DHT22;3823;53.586;10.040;2022-07-06T02:30:28;16.80;26.00
7564;DHT22;3823;53.586;10.040;2022-07-06T02:32:54;16.80;26.00
7564;DHT22;3823;53.586;10.040;2022-07-06T02:35:19;16.80;25.90
7564;DHT22;3823;53.586;10.040;2022-07-06T02:37:45;16.80;26.40
7564;DHT22;3823;53.586;10.040;2022-07-06T02:40:11;16.80;26.60
7564;DHT22;3823;53.586;10.040;2022-07-06T02:42:36;16.80;26.50
7564;DHT22;3823;53.586;10.040;2022-07-06T02:45:02;16.70;26.90
7564;DHT22;3823;53.586;10.040;2022-07-06T02:47:28;16.80;27.00
7564;DHT22;3823;53.586;10.040;2022-07-06T02:49:54;16.70;27.00
7564;DHT22;3823;53.586;10.040;2022-07-06T02:52:20;16.70;27.30
7564;DHT22;3823;53.586;10.040;2022-07-06T02:54:46;16.70;27.90
7564;DHT22;3823;53.586;10.040;2022-07-06T02:57:11;16.70;27.60
7564;DHT22;3823;53.586;10.040;2022-07-06T02:59:37;16.70;28.10
7564;DHT22;3823;53.586;10.040;2022-07-06T03:02:06;16.60;27.20
7564;DHT22;3823;53.586;10.040;2022-07-06T03:04:32;16.50;27.30
7564;DHT22;3823;53.586;10.040;2022-07-06T03:06:58;16.50;27.50
7564;DHT22;3823;53.586;10.040;2022-07-06T03:09:24;16.40;28.20
7564;DHT22;3823;53.586;10.040;2022-07-06T03:11:49;16.40;27.40
7564;DHT22;3823;53.586;10.040;2022-07-06T03:14:15;16.50;27.60
7564;DHT22;3823;53.586;10.040;2022-07-06T03:16:40;16.50;27.20
7564;DHT22;3823;53.586;10.040;2022-07-06T03:19:06;16.50;27.20
7564;DHT22;3823;53.586;10.040;2022-07-06T03:21:32;16.50;27.20
7564;DHT22;3823;53.586;10.040;2022-07-06T03:23:57;16.40;27.70
7564;DHT22;3823;53.586;10.040;2022-07-06T03:26:23;16.40;27.70
7564;DHT22;3823;53.586;10.040;2022-07-06T03:28:49;16.40;28.20
7564;DHT22;3823;53.586;10.040;2022-07-06T03:31:14;16.40;28.50
7564;DHT22;3823;53.586;10.040;2022-07-06T03:33:40;16.40;28.80
7564;DHT22;3823;53.586;10.040;2022-07-06T03:36:06;16.40;29.10
7564;DHT22;3823;53.586;10.040;2022-07-06T03:38:33;16.40;29.60
7564;DHT22;3823;53.586;10.040;2022-07-06T03:40:58;16.40;29.40
7564;DHT22;3823;53.586;10.040;2022-07-06T03:43:24;16.30;29.80
7564;DHT22;3823;53.586;10.040;2022-07-06T03:45:49;16.20;29.80
7564;DHT22;3823;53.586;10.040;2022-07-06T03:48:15;16.20;30.00
7564;DHT22;3823;53.586;10.040;2022-07-06T03:50:41;16.20;30.00
7564;DHT22;3823;53.586;10.040;2022-07-06T03:53:06;16.20;30.20
7564;DHT22;3823;53.586;10.040;2022-07-06T03:55:32;16.30;30.00
7564;DHT22;3823;53.586;10.040;2022-07-06T03:57:57;16.20;30.10
7564;DHT22;3823;53.586;10.040;2022-07-06T04:00:23;16.30;30.60
7564;DHT22;3823;53.586;10.040;2022-07-06T04:02:49;16.40;30.30
7564;DHT22;3823;53.586;10.040;2022-07-06T04:05:14;16.40;30.10
7564;DHT22;3823;53.586;10.040;2022-07-06T04:07:40;16.40;29.20
7564;DHT22;3823;53.586;10.040;2022-07-06T04:10:06;16.40;29.50
7564;DHT22;3823;53.586;10.040;2022-07-06T04:12:39;16.40;29.40
7564;DHT22;3823;53.586;10.040;2022-07-06T04:15:05;16.30;30.00
7564;DHT22;3823;53.586;10.040;2022-07-06T04:17:30;16.20;29.90
7564;DHT22;3823;53.586;10.040;2022-07-06T04:20:14;16.20;29.90
7564;DHT22;3823;53.586;10.040;2022-07-06T04:22:40;16.30;29.90
7564;DHT22;3823;53.586;10.040;2022-07-06T04:25:06;16.20;29.20
7564;DHT22;3823;53.586;10.040;2022-07-06T04:27:31;16.20;29.00
7564;DHT22;3823;53.586;10.040;2022-07-06T04:29:57;16.30;28.40
7564;DHT22;3823;53.586;10.040;2022-07-06T04:32:22;16.30;28.80
7564;DHT22;3823;53.586;10.040;2022-07-06T04:34:48;16.30;28.50
7564;DHT22;3823;53.586;10.040;2022-07-06T04:37:14;16.30;28.70
7564;DHT22;3823;53.586;10.040;2022-07-06T04:39:39;16.30;28.30
7564;DHT22;3823;53.586;10.040;2022-07-06T04:42:05;16.40;27.90
7564;DHT22;3823;53.586;10.040;2022-07-06T04:44:30;16.40;28.00
7564;DHT22;3823;53.586;10.040;2022-07-06T04:46:56;16.50;27.60
7564;DHT22;3823;53.586;10.040;2022-07-06T04:49:22;16.50;27.80
7564;DHT22;3823;53.586;10.040;2022-07-06T04:51:47;16.40;28.40
7564;DHT22;3823;53.586;10.040;2022-07-06T04:54:13;16.40;28.40
7564;DHT22;3823;53.586;10.040;2022-07-06T04:56:38;16.40;28.60
7564;DHT22;3823;53.586;10.040;2022-07-06T04:59:04;16.40;28.20
7564;DHT22;3823;53.586;10.040;2022-07-06T05:01:29;16.50;28.30
7564;DHT22;3823;53.586;10.040;2022-07-06T05:03:55;16.50;28.40
7564;DHT22;3823;53.586;10.040;2022-07-06T05:06:21;16.40;28.40
7564;DHT22;3823;53.586;10.040;2022-07-06T05:08:46;16.40;29.00
7564;DHT22;3823;53.586;10.040;2022-07-06T05:11:12;16.40;28.50
7564;DHT22;3823;53.586;10.040;2022-07-06T05:13:37;16.50;28.70
7564;DHT22;3823;53.586;10.040;2022-07-06T05:16:03;16.50;28.70
7564;DHT22;3823;53.586;10.040;2022-07-06T05:18:29;16.50;28.60
7564;DHT22;3823;53.586;10.040;2022-07-06T05:20:55;16.40;28.50
7564;DHT22;3823;53.586;10.040;2022-07-06T05:23:21;16.40;28.90
7564;DHT22;3823;53.586;10.040;2022-07-06T05:25:46;16.40;28.50
7564;DHT22;3823;53.586;10.040;2022-07-06T05:28:12;16.40;28.60
7564;DHT22;3823;53.586;10.040;2022-07-06T05:30:37;16.40;28.90
7564;DHT22;3823;53.586;10.040;2022-07-06T05:33:03;16.40;29.10
7564;DHT22;3823;53.586;10.040;2022-07-06T05:35:29;16.50;29.20
7564;DHT22;3823;53.586;10.040;2022-07-06T05:37:55;16.50;29.40
7564;DHT22;3823;53.586;10.040;2022-07-06T05:40:20;16.60;29.50
7564;DHT22;3823;53.586;10.040;2022-07-06T05:42:46;16.50;29.20
7564;DHT22;3823;53.586;10.040;2022-07-06T05:45:12;16.50;29.10
7564;DHT22;3823;53.586;10.040;2022-07-06T05:47:37;16.50;29.40
7564;DHT22;3823;53.586;10.040;2022-07-06T05:50:22;16.60;29.20
7564;DHT22;3823;53.586;10.040;2022-07-06T05:52:59;16.50;29.50
7564;DHT22;3823;53.586;10.040;2022-07-06T05:55:25;16.50;29.40
7564;DHT22;3823;53.586;10.040;2022-07-06T05:57:51;16.50;29.90
7564;DHT22;3823;53.586;10.040;2022-07-06T06:00:22;16.40;30.30
7564;DHT22;3823;53.586;10.040;2022-07-06T06:02:48;16.50;30.00
7564;DHT22;3823;53.586;10.040;2022-07-06T06:05:14;16.50;30.70
7564;DHT22;3823;53.586;10.040;2022-07-06T06:07:40;16.60;29.70
7564;DHT22;3823;53.586;10.040;2022-07-06T06:10:11;16.70;29.50
7564;DHT22;3823;53.586;10.040;2022-07-06T06:12:37;16.80;30.90
7564;DHT22;3823;53.586;10.040;2022-07-06T06:15:04;16.70;30.60
7564;DHT22;3823;53.586;10.040;2022-07-06T06:17:31;16.80;30.90
7564;DHT22;3823;53.586;10.040;2022-07-06T06:19:57;16.80;29.80
7564;DHT22;3823;53.586;10.040;2022-07-06T06:22:23;16.70;29.80
7564;DHT22;3823;53.586;10.040;2022-07-06T06:24:48;16.70;29.40
7564;DHT22;3823;53.586;10.040;2022-07-06T06:27:15;16.80;28.10
7564;DHT22;3823;53.586;10.040;2022-07-06T06:29:40;16.70;27.70
7564;DHT22;3823;53.586;10.040;2022-07-06T06:32:07;16.70;28.00
7564;DHT22;3823;53.586;10.040;2022-07-06T06:34:33;16.70;28.20
7564;DHT22;3823;53.586;10.040;2022-07-06T06:36:59;16.70;28.90
7564;DHT22;3823;53.586;10.040;2022-07-06T06:39:24;16.70;28.20
7564;DHT22;3823;53.586;10.040;2022-07-06T06:41:50;16.70;28.30
7564;DHT22;3823;53.586;10.040;2022-07-06T06:44:15;16.80;28.20
7564;DHT22;3823;53.586;10.040;2022-07-06T06:46:43;16.90;27.70
7564;DHT22;3823;53.586;10.040;2022-07-06T06:49:09;17.00;26.90
7564;DHT22;3823;53.586;10.040;2022-07-06T06:51:35;17.10;26.40
7564;DHT22;3823;53.586;10.040;2022-07-06T06:54:00;17.10;26.60
7564;DHT22;3823;53.586;10.040;2022-07-06T06:56:26;17.10;26.00
7564;DHT22;3823;53.586;10.040;2022-07-06T06:58:52;17.10;25.80
7564;DHT22;3823;53.586;10.040;2022-07-06T07:01:17;17.10;25.80
7564;DHT22;3823;53.586;10.040;2022-07-06T07:03:43;17.00;26.00
7564;DHT22;3823;53.586;10.040;2022-07-06T07:06:08;17.20;26.60
7564;DHT22;3823;53.586;10.040;2022-07-06T07:08:34;17.20;25.90
7564;DHT22;3823;53.586;10.040;2022-07-06T07:11:00;17.20;25.80
7564;DHT22;3823;53.586;10.040;2022-07-06T07:13:25;17.20;25.90
7564;DHT22;3823;53.586;10.040;2022-07-06T07:15:51;17.20;26.10
7564;DHT22;3823;53.586;10.040;2022-07-06T07:18:16;17.20;26.50
7564;DHT22;3823;53.586;10.040;2022-07-06T07:20:42;17.20;26.30
7564;DHT22;3823;53.586;10.040;2022-07-06T07:23:08;17.10;27.00
7564;DHT22;3823;53.586;10.040;2022-07-06T07:25:33;17.20;27.00
7564;DHT22;3823;53.586;10.040;2022-07-06T07:27:59;17.20;26.90
7564;DHT22;3823;53.586;10.040;2022-07-06T07:30:25;17.30;28.00
7564;DHT22;3823;53.586;10.040;2022-07-06T07:32:50;17.40;26.90
7564;DHT22;3823;53.586;10.040;2022-07-06T07:35:16;17.50;26.50
7564;DHT22;3823;53.586;10.040;2022-07-06T07:37:42;17.60;25.30
7564;DHT22;3823;53.586;10.040;2022-07-06T07:40:07;17.70;25.40
7564;DHT22;3823;53.586;10.040;2022-07-06T07:42:33;17.70;25.20
7564;DHT22;3823;53.586;10.040;2022-07-06T07:44:59;17.80;25.30
7564;DHT22;3823;53.586;10.040;2022-07-06T07:47:24;17.80;23.80
7564;DHT22;3823;53.586;10.040;2022-07-06T07:49:50;17.80;22.80
7564;DHT22;3823;53.586;10.040;2022-07-06T07:52:16;17.70;22.10
7564;DHT22;3823;53.586;10.040;2022-07-06T07:54:41;17.60;22.00
7564;DHT22;3823;53.586;10.040;2022-07-06T07:57:07;17.40;22.20
7564;DHT22;3823;53.586;10.040;2022-07-06T07:59:33;17.20;22.90
7564;DHT22;3823;53.586;10.040;2022-07-06T08:01:58;17.30;22.00
7564;DHT22;3823;53.586;10.040;2022-07-06T08:04:24;17.40;21.30
7564;DHT22;3823;53.586;10.040;2022-07-06T08:06:50;17.30;21.00
7564;DHT22;3823;53.586;10.040;2022-07-06T08:09:15;17.40;21.40
7564;DHT22;3823;53.586;10.040;2022-07-06T08:11:42;17.40;21.90
7564;DHT22;3823;53.586;10.040;2022-07-06T08:14:07;17.40;22.30
7564;DHT22;3823;53.586;10.040;2022-07-06T08:16:33;17.40;23.00
7564;DHT22;3823;53.586;10.040;2022-07-06T08:18:59;17.60;22.20
7564;DHT22;3823;53.586;10.040;2022-07-06T08:21:24;17.90;22.30
7564;DHT22;3823;53.586;10.040;2022-07-06T08:23:50;18.20;21.00
7564;DHT22;3823;53.586;10.040;2022-07-06T08:26:15;18.30;21.00
7564;DHT22;3823;53.586;10.040;2022-07-06T08:28:41;18.30;20.20
7564;DHT22;3823;53.586;10.040;2022-07-06T08:31:06;18.40;20.00
7564;DHT22;3823;53.586;10.040;2022-07-06T08:33:32;18.50;19.70
7564;DHT22;3823;53.586;10.040;2022-07-06T08:35:58;18.50;20.20
7564;DHT22;3823;53.586;10.040;2022-07-06T08:38:24;18.50;20.80
7564;DHT22;3823;53.586;10.040;2022-07-06T08:40:50;18.40;20.70
7564;DHT22;3823;53.586;10.040;2022-07-06T08:43:16;18.30;21.70
7564;DHT22;3823;53.586;10.040;2022-07-06T08:45:42;18.20;21.50
7564;DHT22;3823;53.586;10.040;2022-07-06T08:48:11;18.10;21.80
7564;DHT22;3823;53.586;10.040;2022-07-06T08:50:37;18.10;22.60
7564;DHT22;3823;53.586;10.040;2022-07-06T08:53:03;18.10;22.10
7564;DHT22;3823;53.586;10.040;2022-07-06T08:55:29;17.90;22.60
7564;DHT22;3823;53.586;10.040;2022-07-06T08:57:56;17.80;22.70
7564;DHT22;3823;53.586;10.040;2022-07-06T09:00:25;17.80;22.70
7564;DHT22;3823;53.586;10.040;2022-07-06T09:02:51;17.80;24.30
7564;DHT22;3823;53.586;10.040;2022-07-06T09:05:21;17.80;23.40
7564;DHT22;3823;53.586;10.040;2022-07-06T09:07:52;17.80;25.40
7564;DHT22;3823;53.586;10.040;2022-07-06T09:10:20;17.80;26.50
7564;DHT22;3823;53.586;10.040;2022-07-06T09:12:45;17.70;26.40
7564;DHT22;3823;53.586;10.040;2022-07-06T09:15:11;17.70;26.50
7564;DHT22;3823;53.586;10.040;2022-07-06T09:17:38;17.90;23.40
7564;DHT22;3823;53.586;10.040;2022-07-06T09:20:10;18.00;24.60
7564;DHT22;3823;53.586;10.040;2022-07-06T09:22:37;18.20;22.90
7564;DHT22;3823;53.586;10.040;2022-07-06T09:25:21;18.30;22.50
7564;DHT22;3823;53.586;10.040;2022-07-06T09:27:47;18.60;21.70
7564;DHT22;3823;53.586;10.040;2022-07-06T09:30:16;18.80;20.80
7564;DHT22;3823;53.586;10.040;2022-07-06T09:32:49;18.90;18.30
7564;DHT22;3823;53.586;10.040;2022-07-06T09:35:38;18.80;18.40
7564;DHT22;3823;53.586;10.040;2022-07-06T09:38:14;18.70;18.30
7564;DHT22;3823;53.586;10.040;2022-07-06T09:40:42;18.60;18.50
7564;DHT22;3823;53.586;10.040;2022-07-06T09:43:19;18.40;18.70
7564;DHT22;3823;53.586;10.040;2022-07-06T09:45:46;18.40;19.60
7564;DHT22;3823;53.586;10.040;2022-07-06T09:48:15;18.40;20.60
7564;DHT22;3823;53.586;10.040;2022-07-06T09:50:46;18.50;20.10
7564;DHT22;3823;53.586;10.040;2022-07-06T09:53:13;18.60;19.70
7564;DHT22;3823;53.586;10.040;2022-07-06T09:55:42;18.70;18.70
7564;DHT22;3823;53.586;10.040;2022-07-06T09:58:08;18.70;18.70
7564;DHT22;3823;53.586;10.040;2022-07-06T10:00:34;18.80;17.80
7564;DHT22;3823;53.586;10.040;2022-07-06T10:03:00;18.80;17.80
7564;DHT22;3823;53.586;10.040;2022-07-06T10:05:26;18.90;17.90
7564;DHT22;3823;53.586;10.040;2022-07-06T10:07:59;19.10;17.40
7564;DHT22;3823;53.586;10.040;2022-07-06T10:10:29;19.30;16.80
7564;DHT22;3823;53.586;10.040;2022-07-06T10:12:59;19.70;16.70
7564;DHT22;3823;53.586;10.040;2022-07-06T10:15:26;19.90;15.90
7564;DHT22;3823;53.586;10.040;2022-07-06T10:17:53;20.00;14.80
7564;DHT22;3823;53.586;10.040;2022-07-06T10:20:20;20.10;14.80
7564;DHT22;3823;53.586;10.040;2022-07-06T10:22:49;20.00;14.30
7564;DHT22;3823;53.586;10.040;2022-07-06T10:25:16;19.90;15.10
7564;DHT22;3823;53.586;10.040;2022-07-06T10:27:43;19.70;15.10
7564;DHT22;3823;53.586;10.040;2022-07-06T10:30:10;19.40;14.30
7564;DHT22;3823;53.586;10.040;2022-07-06T10:32:37;18.90;16.90
7564;DHT22;3823;53.586;10.040;2022-07-06T10:35:04;18.50;20.60
7564;DHT22;3823;53.586;10.040;2022-07-06T10:37:30;18.20;19.10
7564;DHT22;3823;53.586;10.040;2022-07-06T10:39:58;18.00;19.40
7564;DHT22;3823;53.586;10.040;2022-07-06T10:42:46;17.80;19.80
7564;DHT22;3823;53.586;10.040;2022-07-06T10:45:19;17.70;21.40
7564;DHT22;3823;53.586;10.040;2022-07-06T10:47:46;17.50;21.90
7564;DHT22;3823;53.586;10.040;2022-07-06T10:50:12;17.50;23.00
7564;DHT22;3823;53.586;10.040;2022-07-06T10:52:52;17.40;24.10
7564;DHT22;3823;53.586;10.040;2022-07-06T10:55:32;17.40;23.00
7564;DHT22;3823;53.586;10.040;2022-07-06T10:57:59;17.30;24.20
7564;DHT22;3823;53.586;10.040;2022-07-06T11:00:25;17.30;26.20
7564;DHT22;3823;53.586;10.040;2022-07-06T11:02:51;17.30;25.20
7564;DHT22;3823;53.586;10.040;2022-07-06T11:05:39;17.30;25.00
7564;DHT22;3823;53.586;10.040;2022-07-06T11:08:05;17.30;24.20
7564;DHT22;3823;53.586;10.040;2022-07-06T11:10:46;17.30;23.70
7564;DHT22;3823;53.586;10.040;2022-07-06T11:13:28;17.40;24.10
7564;DHT22;3823;53.586;10.040;2022-07-06T11:16:01;17.50;22.60
7564;DHT22;3823;53.586;10.040;2022-07-06T11:18:28;17.60;23.00
7564;DHT22;3823;53.586;10.040;2022-07-06T11:21:23;17.80;23.00
7564;DHT22;3823;53.586;10.040;2022-07-06T11:23:50;18.00;22.30
7564;DHT22;3823;53.586;10.040;2022-07-06T11:26:17;18.20;21.60
7564;DHT22;3823;53.586;10.040;2022-07-06T11:28:45;18.40;20.80
7564;DHT22;3823;53.586;10.040;2022-07-06T11:31:11;18.70;19.90
7564;DHT22;3823;53.586;10.040;2022-07-06T11:33:37;18.90;19.20
7564;DHT22;3823;53.586;10.040;2022-07-06T11:36:19;19.10;18.90
7564;DHT22;3823;53.586;10.040;2022-07-06T11:38:47;19.30;19.00
7564;DHT22;3823;53.586;10.040;2022-07-06T11:41:13;19.40;17.80
7564;DHT22;3823;53.586;10.040;2022-07-06T11:43:44;19.50;18.50
7564;DHT22;3823;53.586;10.040;2022-07-06T11:46:33;19.60;18.70
7564;DHT22;3823;53.586;10.040;2022-07-06T11:49:05;19.60;18.70
7564;DHT22;3823;53.586;10.040;2022-07-06T11:51:34;19.30;19.80
7564;DHT22;3823;53.586;10.040;2022-07-06T11:54:06;19.10;19.90
7564;DHT22;3823;53.586;10.040;2022-07-06T11:56:32;19.00;20.70
7564;DHT22;3823;53.586;10.040;2022-07-06T11:58:59;18.90;20.20
7564;DHT22;3823;53.586;10.040;2022-07-06T12:01:26;18.90;19.50
7564;DHT22;3823;53.586;10.040;2022-07-06T12:03:56;19.00;18.80
7564;DHT22;3823;53.586;10.040;2022-07-06T12:06:24;19.30;16.80
7564;DHT22;3823;53.586;10.040;2022-07-06T12:09:00;19.60;16.40
7564;DHT22;3823;53.586;10.040;2022-07-06T12:11:34;20.00;15.60
7564;DHT22;3823;53.586;10.040;2022-07-06T12:14:02;20.30;15.60
7564;DHT22;3823;53.586;10.040;2022-07-06T12:16:33;20.70;14.40
7564;DHT22;3823;53.586;10.040;2022-07-06T12:19:00;20.90;12.40
7564;DHT22;3823;53.586;10.040;2022-07-06T12:21:27;20.90;11.90
7564;DHT22;3823;53.586;10.040;2022-07-06T12:23:53;20.90;12.00
7564;DHT22;3823;53.586;10.040;2022-07-06T12:26:21;21.10;12.10
7564;DHT22;3823;53.586;10.040;2022-07-06T12:36:45;21.10;10.30
7564;DHT22;3823;53.586;10.040;2022-07-06T12:39:12;20.90;9.30
7564;DHT22;3823;53.586;10.040;2022-07-06T12:42:04;20.80;10.20
7564;DHT22;3823;53.586;10.040;2022-07-06T12:44:30;20.70;10.60
7564;DHT22;3823;53.586;10.040;2022-07-06T12:49:29;20.50;11.40
7564;DHT22;3823;53.586;10.040;2022-07-06T12:57:08;20.60;11.70
7564;DHT22;3823;53.586;10.040;2022-07-06T12:59:37;20.70;11.30
7564;DHT22;3823;53.586;10.040;2022-07-06T13:02:05;20.80;10.80
7564;DHT22;3823;53.586;10.040;2022-07-06T13:04:31;20.80;10.10
7564;DHT22;3823;53.586;10.040;2022-07-06T13:06:59;20.70;10.50
7564;DHT22;3823;53.586;10.040;2022-07-06T13:09:25;20.60;11.30
7564;DHT22;3823;53.586;10.040;2022-07-06T13:11:51;20.50;10.90
7564;DHT22;3823;53.586;10.040;2022-07-06T13:14:18;20.60;12.30
7564;DHT22;3823;53.586;10.040;2022-07-06T13:16:45;20.80;11.60
7564;DHT22;3823;53.586;10.040;2022-07-06T13:19:11;20.90;10.70
7564;DHT22;3823;53.586;10.040;2022-07-06T13:21:37;21.00;10.70
7564;DHT22;3823;53.586;10.040;2022-07-06T13:24:03;21.10;10.60
7564;DHT22;3823;53.586;10.040;2022-07-06T13:26:30;21.00;10.80
7564;DHT22;3823;53.586;10.040;2022-07-06T13:29:02;21.00;10.80
7564;DHT22;3823;53.586;10.040;2022-07-06T13:31:29;21.10;10.90
7564;DHT22;3823;53.586;10.040;2022-07-06T13:33:54;21.30;11.00
7564;DHT22;3823;53.586;10.040;2022-07-06T13:36:20;21.20;9.70
7564;DHT22;3823;53.586;10.040;2022-07-06T13:38:45;21.20;9.60
7564;DHT22;3823;53.586;10.040;2022-07-06T13:41:11;21.20;8.60
7564;DHT22;3823;53.586;10.040;2022-07-06T13:43:37;21.20;9.70
7564;DHT22;3823;53.586;10.040;2022-07-06T13:46:04;21.20;9.50
7564;DHT22;3823;53.586;10.040;2022-07-06T13:48:31;21.30;8.70
7564;DHT22;3823;53.586;10.040;2022-07-06T13:50:57;21.40;8.10
7564;DHT22;3823;53.586;10.040;2022-07-06T13:53:22;21.40;7.90
7564;DHT22;3823;53.586;10.040;2022-07-06T13:55:48;21.40;8.30
7564;DHT22;3823;53.586;10.040;2022-07-06T13:58:13;21.50;7.80
7564;DHT22;3823;53.586;10.040;2022-07-06T14:00:39;21.40;6.80
7564;DHT22;3823;53.586;10.040;2022-07-06T14:03:05;21.40;7.80
7564;DHT22;3823;53.586;10.040;2022-07-06T14:05:31;21.40;8.00
7564;DHT22;3823;53.586;10.040;2022-07-06T14:07:56;21.50;7.10
7564;DHT22;3823;53.586;10.040;2022-07-06T14:10:22;21.60;7.30
7564;DHT22;3823;53.586;10.040;2022-07-06T14:12:48;21.70;7.40
7564;DHT22;3823;53.586;10.040;2022-07-06T14:15:14;21.70;7.00
7564;DHT22;3823;53.586;10.040;2022-07-06T14:17:39;21.80;6.80
7564;DHT22;3823;53.586;10.040;2022-07-06T14:20:05;21.80;5.80
7564;DHT22;3823;53.586;10.040;2022-07-06T14:22:31;21.80;6.10
7564;DHT22;3823;53.586;10.040;2022-07-06T14:24:59;21.80;6.00
7564;DHT22;3823;53.586;10.040;2022-07-06T14:27:24;21.90;5.80
7564;DHT22;3823;53.586;10.040;2022-07-06T14:29:50;21.90;6.60
7564;DHT22;3823;53.586;10.040;2022-07-06T14:32:15;21.80;6.30
7564;DHT22;3823;53.586;10.040;2022-07-06T14:34:41;21.80;5.80
7564;DHT22;3823;53.586;10.040;2022-07-06T14:37:07;21.70;5.10
7564;DHT22;3823;53.586;10.040;2022-07-06T14:39:33;21.60;5.30
7564;DHT22;3823;53.586;10.040;2022-07-06T14:41:59;21.50;5.40
7564;DHT22;3823;53.586;10.040;2022-07-06T14:44:24;21.40;5.70
7564;DHT22;3823;53.586;10.040;2022-07-06T14:46:51;21.30;6.50
7564;DHT22;3823;53.586;10.040;2022-07-06T14:49:17;21.20;6.90
7564;DHT22;3823;53.586;10.040;2022-07-06T14:51:43;21.10;7.20
7564;DHT22;3823;53.586;10.040;2022-07-06T14:54:08;21.10;7.30
7564;DHT22;3823;53.586;10.040;2022-07-06T14:56:35;21.10;6.30
7564;DHT22;3823;53.586;10.040;2022-07-06T14:59:00;21.10;5.90
7564;DHT22;3823;53.586;10.040;2022-07-06T15:01:26;21.10;6.40
7564;DHT22;3823;53.586;10.040;2022-07-06T15:03:52;21.30;7.00
7564;DHT22;3823;53.586;10.040;2022-07-06T15:06:17;21.20;6.20
7564;DHT22;3823;53.586;10.040;2022-07-06T15:08:43;21.20;6.90
7564;DHT22;3823;53.586;10.040;2022-07-06T15:11:09;21.10;6.30
7564;DHT22;3823;53.586;10.040;2022-07-06T15:13:34;21.00;6.80
7564;DHT22;3823;53.586;10.040;2022-07-06T15:16:00;21.00;8.20
7564;DHT22;3823;53.586;10.040;2022-07-06T15:18:26;21.10;8.10
7564;DHT22;3823;53.586;10.040;2022-07-06T15:20:51;21.10;8.00
7564;DHT22;3823;53.586;10.040;2022-07-06T15:23:17;21.10;8.20
7564;DHT22;3823;53.586;10.040;2022-07-06T15:25:43;21.10;8.50
7564;DHT22;3823;53.586;10.040;2022-07-06T15:28:08;21.10;7.90
7564;DHT22;3823;53.586;10.040;2022-07-06T15:30:34;21.10;8.60
7564;DHT22;3823;53.586;10.040;2022-07-06T15:33:01;21.00;8.60
7564;DHT22;3823;53.586;10.040;2022-07-06T15:35:27;20.90;8.50
7564;DHT22;3823;53.586;10.040;2022-07-06T15:37:52;20.90;7.70
7564;DHT22;3823;53.586;10.040;2022-07-06T15:40:18;20.90;7.30
7564;DHT22;3823;53.586;10.040;2022-07-06T15:42:49;20.80;8.20
7564;DHT22;3823;53.586;10.040;2022-07-06T15:45:16;20.80;8.30
7564;DHT22;3823;53.586;10.040;2022-07-06T15:47:43;20.80;9.00
7564;DHT22;3823;53.586;10.040;2022-07-06T15:50:09;20.70;8.50
7564;DHT22;3823;53.586;10.040;2022-07-06T15:52:34;20.70;8.60
7564;DHT22;3823;53.586;10.040;2022-07-06T15:55:00;20.60;9.00
7564;DHT22;3823;53.586;10.040;2022-07-06T15:57:25;20.60;9.40
7564;DHT22;3823;53.586;10.040;2022-07-06T15:59:51;20.50;9.40
7564;DHT22;3823;53.586;10.040;2022-07-06T16:02:16;20.50;9.60
7564;DHT22;3823;53.586;10.040;2022-07-06T16:04:45;20.60;9.90
7564;DHT22;3823;53.586;10.040;2022-07-06T16:07:10;20.70;9.10